Time;durP1;ratioP1;P1;durP2;ratioP2;P2;SDS_P1;SDS_P2;PMS_P1;PMS_P2;Temp;Humidity;BMP_temperature;BMP_pressure;BME280_temperature;BME280_humidity;BME280_pressure;Samples;Min_cycle;Max_cycle;Signal;HPM_P1;HPM_P2
2023/05/15 00:01:32;;;;;;;21.10;16.42;;;;;;;13.20;100.00;100324.09;5007112;28;20034;-19
2023/05/15 00:03:58;;;;;;;17.85;15.10;;;;;;;12.82;100.00;100323.41;5007336;28;20026;-17
2023/05/15 00:06:23;;;;;;;18.13;15.10;;;;;;;12.94;100.00;100326.13;5006807;28;20117;-19
2023/05/15 00:08:48;;;;;;;15.52;13.88;;;;;;;12.72;100.00;100322.31;5007497;28;20030;-19
2023/05/15 00:11:14;;;;;;;20.75;14.57;;;;;;;12.83;100.00;100314.34;5006741;28;20110;-18
2023/05/15 00:13:40;;;;;;;20.85;14.40;;;;;;;12.79;100.00;100313.16;5007004;28;20092;-18
2023/05/15 00:16:07;;;;;;;15.40;13.68;;;;;;;12.93;100.00;100318.31;5007053;28;20060;-19
2023/05/15 00:18:32;;;;;;;16.35;13.23;;;;;;;12.88;100.00;100310.16;5006519;28;20030;-18
2023/05/15 00:20:58;;;;;;;16.88;13.80;;;;;;;12.91;100.00;100307.00;5006997;28;20096;-18
2023/05/15 00:23:23;;;;;;;16.48;14.60;;;;;;;13.21;100.00;100304.31;5006837;28;20414;-23
2023/05/15 00:25:49;;;;;;;17.67;15.07;;;;;;;13.12;100.00;100301.16;5006424;28;20057;-18
2023/05/15 00:28:14;;;;;;;18.70;15.20;;;;;;;13.13;100.00;100288.56;5006781;28;20053;-21
2023/05/15 00:30:40;;;;;;;18.13;14.77;;;;;;;13.11;100.00;100282.63;5006855;28;20061;-20
2023/05/15 00:33:06;;;;;;;17.02;14.75;;;;;;;12.94;100.00;100285.97;5006724;28;20028;-19
2023/05/15 00:35:31;;;;;;;20.02;14.57;;;;;;;12.99;100.00;100274.56;5019567;28;20025;-19
2023/05/15 00:37:57;;;;;;;16.08;13.70;;;;;;;12.93;100.00;100291.53;5026454;28;20025;-20
2023/05/15 00:40:24;;;;;;;16.05;13.93;;;;;;;13.02;100.00;100279.47;5026338;28;20467;-18
2023/05/15 00:42:51;;;;;;;16.52;14.55;;;;;;;12.96;100.00;100281.19;5026716;28;21064;-18
2023/05/15 00:45:18;;;;;;;17.80;14.40;;;;;;;13.00;100.00;100281.56;5025987;28;20033;-20
2023/05/15 00:47:44;;;;;;;16.83;13.93;;;;;;;12.87;100.00;100293.25;5026595;28;20051;-18
2023/05/15 00:50:10;;;;;;;17.15;14.27;;;;;;;12.70;100.00;100285.06;5026276;28;20075;-19
2023/05/15 00:52:36;;;;;;;17.70;15.30;;;;;;;12.76;100.00;100280.69;5026290;28;20037;-18
2023/05/15 00:55:03;;;;;;;20.60;14.30;;;;;;;12.73;100.00;100281.97;5025940;28;20033;-20
2023/05/15 00:57:30;;;;;;;17.70;14.07;;;;;;;12.71;100.00;100281.38;5025717;28;20039;-19
2023/05/15 00:59:56;;;;;;;19.00;14.60;;;;;;;12.70;100.00;100287.75;5026041;28;20034;-19
2023/05/15 01:02:22;;;;;;;16.40;14.68;;;;;;;12.62;100.00;100274.69;5026151;28;20180;-19
2023/05/15 01:04:47;;;;;;;15.82;14.07;;;;;;;12.66;100.00;100275.88;5025806;28;20729;-19
2023/05/15 01:07:13;;;;;;;17.73;15.13;;;;;;;12.73;100.00;100271.25;5025787;28;20624;-18
2023/05/15 01:09:42;;;;;;;16.77;14.40;;;;;;;12.57;100.00;100240.59;5025933;28;20026;-19
2023/05/15 01:12:09;;;;;;;18.95;15.63;;;;;;;12.76;100.00;100254.72;5025509;28;20482;-18
2023/05/15 01:14:35;;;;;;;19.48;14.88;;;;;;;12.85;100.00;100253.38;5025757;28;20037;-18
2023/05/15 01:17:00;;;;;;;20.33;15.45;;;;;;;12.66;100.00;100249.91;5025878;28;20025;-18
2023/05/15 01:19:26;;;;;;;19.65;16.58;;;;;;;12.46;100.00;100236.84;5025580;28;20048;-26
2023/05/15 01:22:06;;;;;;;18.55;15.93;;;;;;;12.71;100.00;100246.59;5025657;28;20029;-17
2023/05/15 01:24:40;;;;;;;19.08;16.55;;;;;;;12.53;100.00;100238.63;5025720;28;20040;-18
2023/05/15 01:27:12;;;;;;;20.75;17.75;;;;;;;12.74;100.00;100239.94;5025440;28;20052;-18
2023/05/15 01:29:48;;;;;;;19.25;17.23;;;;;;;12.55;100.00;100217.81;5025301;28;20514;-16
2023/05/15 01:32:19;;;;;;;19.95;16.70;;;;;;;12.55;100.00;100215.94;5025194;28;20401;-18
2023/05/15 01:35:03;;;;;;;20.70;16.85;;;;;;;12.52;100.00;100204.88;5025339;28;20774;-19
2023/05/15 01:37:32;;;;;;;19.00;16.08;;;;;;;12.24;100.00;100193.72;5024317;28;20489;-19
2023/05/15 01:40:01;;;;;;;20.88;16.60;;;;;;;12.54;100.00;100202.78;5025255;28;20025;-18
2023/05/15 01:42:32;;;;;;;21.25;16.75;;;;;;;12.50;100.00;100212.31;5025263;28;20037;-22
2023/05/15 01:45:02;;;;;;;21.35;16.63;;;;;;;12.65;100.00;100226.09;5025191;28;20072;-19
2023/05/15 01:47:35;;;;;;;18.77;15.95;;;;;;;12.58;100.00;100209.31;5025187;28;20040;-19
2023/05/15 01:50:03;;;;;;;18.70;16.10;;;;;;;12.28;100.00;100228.88;5025313;28;20109;-18
2023/05/15 01:52:33;;;;;;;17.15;15.32;;;;;;;12.23;100.00;100218.03;5024966;28;20024;-19
2023/05/15 01:55:00;;;;;;;19.67;16.75;;;;;;;12.06;100.00;100202.59;5025013;28;20044;-18
2023/05/15 01:57:28;;;;;;;18.60;15.55;;;;;;;12.06;100.00;100213.28;5025377;28;20661;-22
2023/05/15 01:59:54;;;;;;;16.88;14.90;;;;;;;12.15;100.00;100215.66;5040376;28;20033;-19
2023/05/15 02:02:20;;;;;;;17.17;15.10;;;;;;;12.11;100.00;100211.81;5025318;28;20079;-18
2023/05/15 02:04:47;;;;;;;16.83;14.98;;;;;;;12.03;100.00;100208.41;5024834;28;20049;-23
2023/05/15 02:07:14;;;;;;;17.92;15.93;;;;;;;12.44;100.00;100228.22;5025143;28;20036;-18
2023/05/15 02:09:41;;;;;;;18.30;15.88;;;;;;;12.30;100.00;100212.56;5024815;28;20493;-21
2023/05/15 02:12:08;;;;;;;20.38;16.42;;;;;;;12.30;100.00;100213.41;5024570;28;20094;-18
2023/05/15 02:14:34;;;;;;;18.58;15.15;;;;;;;12.27;100.00;100203.16;5024777;28;20065;-18
2023/05/15 02:16:59;;;;;;;19.30;15.05;;;;;;;12.39;100.00;100195.19;5024724;28;20041;-19
2023/05/15 02:19:25;;;;;;;20.25;16.02;;;;;;;12.37;100.00;100192.72;5025225;28;20040;-20
2023/05/15 02:21:50;;;;;;;19.20;15.82;;;;;;;12.22;100.00;100173.63;5024792;28;20054;-18
2023/05/15 02:24:18;;;;;;;21.60;18.00;;;;;;;12.17;100.00;100165.44;5024687;28;20807;-20
2023/05/15 02:27:03;;;;;;;24.15;19.95;;;;;;;12.44;100.00;100161.38;5024745;28;20052;-18
2023/05/15 02:29:41;;;;;;;19.75;16.88;;;;;;;12.35;100.00;100164.59;5024687;28;20033;-18
2023/05/15 02:32:30;;;;;;;22.92;17.75;;;;;;;12.31;100.00;100145.50;5024847;28;20511;-19
2023/05/15 02:35:17;;;;;;;22.13;17.25;;;;;;;12.45;100.00;100141.59;5024700;28;20034;-18
2023/05/15 02:37:46;;;;;;;21.83;16.03;;;;;;;12.34;100.00;100139.72;5024631;28;20029;-18
2023/05/15 02:40:12;;;;;;;26.35;17.98;;;;;;;12.34;100.00;100160.28;5024628;28;20029;-19
2023/05/15 02:42:39;;;;;;;19.40;15.93;;;;;;;12.38;100.00;100172.97;5024641;28;20803;-19
2023/05/15 02:45:07;;;;;;;18.73;13.52;;;;;;;12.30;100.00;100184.00;5024420;28;20022;-19
2023/05/15 02:47:33;;;;;;;17.10;14.73;;;;;;;12.53;100.00;100195.81;5024829;28;20034;-20
2023/05/15 02:49:58;;;;;;;20.13;14.68;;;;;;;12.62;100.00;100189.88;5028232;28;20481;-17
2023/05/15 02:52:24;;;;;;;18.23;14.20;;;;;;;12.61;100.00;100176.75;5028567;28;20032;-19
2023/05/15 02:54:49;;;;;;;17.40;13.60;;;;;;;12.33;100.00;100180.84;5027967;28;20404;-18
2023/05/15 02:57:15;;;;;;;18.02;13.57;;;;;;;12.04;100.00;100161.09;5028354;28;20029;-19
2023/05/15 02:59:40;;;;;;;20.73;15.90;;;;;;;12.14;100.00;100168.59;5028069;28;20022;-21
2023/05/15 03:02:06;;;;;;;22.75;17.10;;;;;;;12.35;100.00;100184.13;5028389;28;20076;-18
2023/05/15 03:04:31;;;;;;;19.08;15.85;;;;;;;12.52;100.00;100170.91;5027852;28;20029;-19
2023/05/15 03:06:57;;;;;;;18.88;14.20;;;;;;;12.37;100.00;100190.06;5027957;28;20025;-22
2023/05/15 03:09:22;;;;;;;20.00;14.10;;;;;;;12.42;100.00;100200.91;5028077;28;20032;-19
2023/05/15 03:11:47;;;;;;;21.30;16.27;;;;;;;12.51;100.00;100203.25;5027736;28;20060;-19
2023/05/15 03:14:13;;;;;;;39.63;17.92;;;;;;;12.35;100.00;100186.78;5027738;28;20037;-20
2023/05/15 03:16:39;;;;;;;18.88;15.38;;;;;;;12.24;100.00;100179.56;5028017;28;20035;-17
2023/05/15 03:19:05;;;;;;;17.17;14.70;;;;;;;12.33;100.00;100193.41;5028101;28;20060;-18
2023/05/15 03:21:30;;;;;;;17.67;14.40;;;;;;;12.49;100.00;100200.78;5027763;28;20701;-18
2023/05/15 03:23:56;;;;;;;19.77;15.40;;;;;;;12.32;100.00;100189.94;5027614;28;20033;-18
2023/05/15 03:26:22;;;;;;;18.73;14.57;;;;;;;12.06;100.00;100191.91;5027845;28;20041;-19
2023/05/15 03:28:47;;;;;;;17.80;14.07;;;;;;;12.27;100.00;100206.63;5027666;28;20037;-21
2023/05/15 03:31:13;;;;;;;19.70;14.98;;;;;;;12.27;100.00;100197.81;5027456;28;20412;-17
2023/05/15 03:33:39;;;;;;;19.10;14.70;;;;;;;12.30;100.00;100200.03;5027483;28;20408;-18
2023/05/15 03:36:05;;;;;;;16.02;13.80;;;;;;;12.31;100.00;100204.34;5027602;28;20038;-19
2023/05/15 03:38:31;;;;;;;19.20;15.63;;;;;;;12.20;100.00;100199.78;5027458;28;20053;-18
2023/05/15 03:40:56;;;;;;;17.55;14.60;;;;;;;12.16;100.00;100198.59;5027634;28;20519;-21
2023/05/15 03:43:22;;;;;;;18.80;13.60;;;;;;;12.27;100.00;100189.78;5027531;28;20037;-20
2023/05/15 03:45:48;;;;;;;15.52;13.20;;;;;;;12.38;100.00;100178.31;5027191;28;20037;-19
2023/05/15 03:48:13;;;;;;;17.42;14.45;;;;;;;12.49;100.00;100184.75;5027393;28;20033;-19
2023/05/15 03:50:39;;;;;;;17.30;13.88;;;;;;;12.41;100.00;100161.00;5027422;28;20032;-18
2023/05/15 03:53:04;;;;;;;19.63;15.52;;;;;;;12.48;100.00;100150.19;5027250;28;20017;-18
2023/05/15 03:55:30;;;;;;;15.40;12.10;;;;;;;12.43;100.00;100154.38;5027350;28;20432;-18
2023/05/15 03:57:56;;;;;;;17.35;12.65;;;;;;;12.85;100.00;100159.69;5027186;28;20041;-17
2023/05/15 04:00:22;;;;;;;14.57;13.07;;;;;;;12.96;100.00;100173.31;5026115;28;20499;-19
2023/05/15 04:02:48;;;;;;;15.25;13.15;;;;;;;12.97;100.00;100158.88;5027272;28;20499;-18
2023/05/15 04:05:13;;;;;;;15.48;13.00;;;;;;;12.98;100.00;100177.38;5027205;28;20029;-18
2023/05/15 04:07:39;;;;;;;15.38;13.10;;;;;;;13.01;100.00;100178.78;5026890;28;20489;-20
2023/05/15 04:10:05;;;;;;;17.60;12.50;;;;;;;12.89;100.00;100178.75;5026987;28;20616;-20
2023/05/15 04:12:32;;;;;;;21.30;12.68;;;;;;;13.00;100.00;100182.50;5026647;28;20052;-18
2023/05/15 04:15:12;;;;;;;13.93;11.53;;;;;;;12.89;100.00;100167.25;5026865;28;20060;-18
2023/05/15 04:17:38;;;;;;;15.90;12.70;;;;;;;13.16;100.00;100179.13;5026645;28;20275;-19
2023/05/15 04:20:05;;;;;;;16.60;11.50;;;;;;;13.16;100.00;100186.38;5026866;28;20033;-19
2023/05/15 04:22:30;;;;;;;12.95;10.88;;;;;;;13.23;100.00;100185.19;5026472;28;20032;-20
2023/05/15 04:24:55;;;;;;;16.38;11.95;;;;;;;13.40;100.00;100184.50;5026937;28;20021;-18
2023/05/15 04:27:21;;;;;;;15.55;12.20;;;;;;;13.35;100.00;100176.38;5026531;28;20032;-19
2023/05/15 04:29:46;;;;;;;13.50;11.43;;;;;;;13.30;100.00;100166.38;5026676;28;20868;-18
2023/05/15 04:32:12;;;;;;;14.35;11.05;;;;;;;13.40;100.00;100163.06;5041870;28;20029;-19
2023/05/15 04:34:37;;;;;;;14.02;11.52;;;;;;;13.54;100.00;100169.81;5026354;28;20102;-18
2023/05/15 04:37:03;;;;;;;13.38;10.68;;;;;;;13.55;100.00;100160.72;5026290;28;20033;-19
2023/05/15 04:39:29;;;;;;;12.30;10.50;;;;;;;13.48;100.00;100169.94;5026182;28;20032;-18
2023/05/15 04:41:54;;;;;;;13.02;11.10;;;;;;;13.61;100.00;100167.81;5026643;28;20117;-19
2023/05/15 04:44:20;;;;;;;14.45;10.48;;;;;;;13.73;100.00;100180.38;5026301;28;20095;-19
2023/05/15 04:46:45;;;;;;;12.90;9.98;;;;;;;13.88;100.00;100183.38;5026318;28;20034;-18
2023/05/15 04:49:11;;;;;;;13.48;10.80;;;;;;;13.93;100.00;100188.81;5026425;28;20026;-18
2023/05/15 04:51:36;;;;;;;15.50;9.52;;;;;;;14.07;100.00;100198.22;5025951;28;20033;-20
2023/05/15 04:54:02;;;;;;;12.73;9.88;;;;;;;14.00;100.00;100196.75;5026017;28;20502;-18
2023/05/15 04:56:27;;;;;;;12.93;9.80;;;;;;;14.14;100.00;100190.06;5025970;28;20048;-23
2023/05/15 04:58:53;;;;;;;12.70;9.70;;;;;;;14.17;100.00;100202.97;5026499;28;20076;-20
2023/05/15 05:01:18;;;;;;;12.38;10.00;;;;;;;14.04;100.00;100211.31;5026067;28;20025;-18
2023/05/15 05:03:44;;;;;;;14.93;10.95;;;;;;;14.07;100.00;100194.72;5025850;28;20033;-18
2023/05/15 05:06:10;;;;;;;13.50;9.70;;;;;;;14.24;100.00;100216.22;5025838;28;20034;-19
2023/05/15 05:08:35;;;;;;;12.93;9.95;;;;;;;14.42;100.00;100224.09;5026194;28;20082;-18
2023/05/15 05:11:01;;;;;;;11.70;10.50;;;;;;;14.25;100.00;100225.91;5025571;28;20138;-18
2023/05/15 05:13:29;;;;;;;16.83;10.98;;;;;;;14.17;100.00;100232.47;5025726;28;20037;-18
2023/05/15 05:15:54;;;;;;;11.82;10.48;;;;;;;14.23;100.00;100230.72;5025726;28;20511;-18
2023/05/15 05:18:19;;;;;;;11.75;10.40;;;;;;;14.16;100.00;100230.84;5025293;28;20179;-18
2023/05/15 05:20:45;;;;;;;12.80;10.85;;;;;;;14.03;100.00;100221.19;5025757;28;20556;-19
2023/05/15 05:23:10;;;;;;;14.80;9.88;;;;;;;14.31;100.00;100211.56;5025342;28;20029;-18
2023/05/15 05:25:35;;;;;;;11.45;9.63;;;;;;;14.25;100.00;100215.19;5025538;28;20061;-18
2023/05/15 05:28:01;;;;;;;11.88;9.18;;;;;;;14.31;100.00;100224.97;5025399;28;20029;-18
2023/05/15 05:30:26;;;;;;;14.65;10.77;;;;;;;14.58;100.00;100211.00;5025596;28;20106;-18
2023/05/15 05:32:52;;;;;;;13.52;10.65;;;;;;;14.47;100.00;100192.00;5025384;28;20021;-19
2023/05/15 05:35:17;;;;;;;15.68;11.63;;;;;;;14.67;100.00;100190.75;5025062;28;20544;-18
2023/05/15 05:37:43;;;;;;;13.05;10.80;;;;;;;14.47;100.00;100204.59;5025353;28;20037;-18
2023/05/15 05:40:09;;;;;;;12.63;10.65;;;;;;;14.61;100.00;100205.16;5024945;28;20462;-18
2023/05/15 05:42:34;;;;;;;13.15;10.57;;;;;;;14.80;100.00;100219.16;5025257;28;20033;-20
2023/05/15 05:45:00;;;;;;;14.05;10.27;;;;;;;14.81;100.00;100207.34;5025105;28;20076;-19
2023/05/15 05:47:25;;;;;;;13.60;10.07;;;;;;;14.71;100.00;100208.00;5025343;28;20720;-21
2023/05/15 05:49:51;;;;;;;14.77;10.68;;;;;;;14.93;100.00;100204.59;5016166;28;20048;-19
2023/05/15 05:52:16;;;;;;;14.23;10.15;;;;;;;14.94;100.00;100192.81;5012838;28;20072;-18
2023/05/15 05:54:44;;;;;;;16.00;10.88;;;;;;;15.26;100.00;100199.22;5005074;28;20417;-19
2023/05/15 05:57:10;;;;;;;12.57;9.40;;;;;;;15.26;100.00;100201.06;5004959;28;20053;-19
2023/05/15 05:59:36;;;;;;;12.25;9.75;;;;;;;15.50;100.00;100207.03;5005656;28;20052;-18
2023/05/15 06:02:02;;;;;;;12.55;9.45;;;;;;;14.98;100.00;100208.19;5005186;28;20026;-18
2023/05/15 06:04:27;;;;;;;13.80;9.88;;;;;;;15.10;100.00;100218.84;5005648;28;20073;-19
2023/05/15 06:06:53;;;;;;;11.65;9.65;;;;;;;15.33;100.00;100222.41;5005228;28;20493;-18
2023/05/15 06:09:19;;;;;;;14.50;10.88;;;;;;;15.74;100.00;100217.63;5005016;28;21255;-19
2023/05/15 06:11:44;;;;;;;12.88;10.05;;;;;;;15.91;100.00;100223.75;5005053;28;20160;-18
2023/05/15 06:14:10;;;;;;;12.98;9.82;;;;;;;15.95;100.00;100229.44;5005044;28;20029;-19
2023/05/15 06:16:35;;;;;;;12.93;9.90;;;;;;;15.64;100.00;100221.75;5004995;28;20492;-18
2023/05/15 06:19:01;;;;;;;11.75;9.68;;;;;;;15.62;100.00;100234.63;5004973;28;20109;-19
2023/05/15 06:21:26;;;;;;;12.27;10.13;;;;;;;15.80;100.00;100233.56;5005188;28;20025;-18
2023/05/15 06:23:52;;;;;;;13.93;9.82;;;;;;;15.63;100.00;100230.91;5007248;28;20033;-18
2023/05/15 06:26:17;;;;;;;13.98;10.23;;;;;;;15.80;100.00;100222.81;5008916;28;20497;-19
2023/05/15 06:28:42;;;;;;;11.90;9.68;;;;;;;15.94;100.00;100217.88;5008949;28;20040;-18
2023/05/15 06:31:08;;;;;;;13.50;9.70;;;;;;;16.23;100.00;100220.34;5008957;28;20034;-18
2023/05/15 06:33:34;;;;;;;11.65;8.93;;;;;;;16.16;99.36;100230.47;5008806;28;20028;-18
2023/05/15 06:36:00;;;;;;;11.80;9.57;;;;;;;16.15;99.16;100229.69;5008983;28;20014;-22
2023/05/15 06:38:25;;;;;;;14.85;9.52;;;;;;;16.04;97.19;100218.00;5008972;28;20078;-19
2023/05/15 06:40:51;;;;;;;13.25;9.93;;;;;;;15.83;100.00;100210.72;5006766;28;20033;-18
2023/05/15 06:43:16;;;;;;;15.80;9.90;;;;;;;15.96;100.00;100209.56;5007445;28;20029;-18
2023/05/15 06:45:41;;;;;;;12.90;10.10;;;;;;;15.92;100.00;100203.88;5008855;28;20077;-18
2023/05/15 06:48:07;;;;;;;13.82;10.10;;;;;;;16.20;97.90;100216.28;5007975;28;20409;-19
2023/05/15 11:56:56;;;;;;;12.07;10.05;;;;;;;18.51;89.82;100025.22;5067225;22;1731155;-74
2023/05/15 11:59:26;;;;;;;13.88;9.25;;;;;;;19.13;85.29;100047.56;5085890;28;20043;-74
2023/05/15 12:01:51;;;;;;;12.35;9.63;;;;;;;19.55;82.51;100038.94;5086438;28;20093;-73
2023/05/15 12:04:18;;;;;;;11.60;9.13;;;;;;;19.79;81.86;100044.53;5085816;28;20032;-73
2023/05/15 12:06:46;;;;;;;13.30;10.10;;;;;;;19.80;85.70;100029.13;5083971;28;20509;-74
2023/05/15 12:09:18;;;;;;;12.23;9.35;;;;;;;19.95;85.17;100037.09;5083638;28;20035;-74
2023/05/15 12:11:54;;;;;;;12.02;8.93;;;;;;;19.83;80.82;100050.19;5083819;28;20452;-73
2023/05/15 12:14:27;;;;;;;11.05;9.57;;;;;;;19.73;84.71;100045.63;5083314;28;20606;-73
2023/05/15 12:16:53;;;;;;;10.50;8.93;;;;;;;19.64;80.56;100053.50;5083789;28;20115;-74
2023/05/15 12:19:18;;;;;;;10.63;8.73;;;;;;;19.56;80.76;100043.28;5083101;28;20111;-73
2023/05/15 12:21:46;;;;;;;12.85;9.48;;;;;;;19.81;80.86;100041.53;5083132;28;20038;-73
2023/05/15 12:24:12;;;;;;;11.25;9.48;;;;;;;19.93;81.03;100035.78;5082767;28;20524;-73
2023/05/15 12:26:38;;;;;;;11.88;9.57;;;;;;;19.86;78.68;100028.00;5082937;28;20033;-74
2023/05/15 12:29:04;;;;;;;11.18;9.40;;;;;;;20.06;76.39;100011.59;5083450;28;20071;-74
2023/05/15 12:31:30;;;;;;;11.93;9.05;;;;;;;19.98;78.60;100003.25;5082707;28;20052;-74
2023/05/15 12:33:56;;;;;;;10.88;8.80;;;;;;;20.10;80.20;99987.44;5083097;28;20487;-73
2023/05/15 12:36:21;;;;;;;10.45;8.82;;;;;;;20.69;82.06;100017.25;5082113;28;20119;-73
2023/05/15 12:38:47;;;;;;;12.02;10.40;;;;;;;20.51;80.50;100045.84;5082417;28;20603;-74
2023/05/15 12:41:13;;;;;;;10.45;9.02;;;;;;;20.44;78.12;100025.31;5086233;28;20032;-74
2023/05/15 12:43:39;;;;;;;13.07;9.70;;;;;;;20.79;76.61;100014.44;5085668;28;20039;-74
2023/05/15 12:46:04;;;;;;;13.02;9.43;;;;;;;20.91;74.25;100014.84;5086477;28;20028;-73
2023/05/15 12:48:31;;;;;;;12.18;9.07;;;;;;;20.87;73.07;100005.69;5067378;28;20064;-74
2023/05/15 12:51:03;;;;;;;14.20;10.25;;;;;;;21.05;76.06;100023.09;5085094;28;20483;-74
2023/05/15 12:53:31;;;;;;;12.80;9.48;;;;;;;20.97;74.56;100012.88;5086234;28;20034;-73
2023/05/15 12:55:56;;;;;;;12.07;9.00;;;;;;;20.79;78.51;100007.09;5086259;28;20021;-74
2023/05/15 12:58:22;;;;;;;14.07;9.65;;;;;;;20.85;78.12;99999.75;5086192;28;20048;-74
2023/05/15 13:00:49;;;;;;;12.10;9.70;;;;;;;21.00;75.80;100026.69;5086069;28;20074;-74
2023/05/15 13:03:14;;;;;;;13.40;9.27;;;;;;;20.89;76.27;100016.22;5086214;28;20028;-74
2023/05/15 13:05:44;;;;;;;11.25;9.68;;;;;;;20.85;75.76;100005.97;5086254;28;20030;-73
2023/05/15 13:08:15;;;;;;;12.40;9.65;;;;;;;21.06;74.52;100001.13;5073589;28;20129;-74
2023/05/15 13:10:40;;;;;;;11.32;9.65;;;;;;;20.57;74.88;99999.44;5070717;28;20142;-73
2023/05/15 13:13:06;;;;;;;11.63;7.85;;;;;;;20.34;74.41;99990.22;5072509;28;20103;-74
2023/05/15 13:15:37;;;;;;;10.57;8.20;;;;;;;20.57;75.06;99987.81;5070487;28;20059;-74
2023/05/15 13:18:05;;;;;;;14.38;9.07;;;;;;;20.53;78.51;99997.63;5072917;28;20047;-73
2023/05/15 13:20:36;;;;;;;10.27;7.47;;;;;;;20.56;73.38;99997.84;5070942;28;20035;-72
2023/05/15 13:23:02;;;;;;;9.13;7.63;;;;;;;21.12;72.88;99999.13;5071200;28;20033;-74
2023/05/15 13:25:28;;;;;;;11.40;7.90;;;;;;;21.32;69.87;99981.78;5071931;28;20033;-74
2023/05/15 13:27:56;;;;;;;10.82;7.30;;;;;;;21.98;67.04;99990.84;5071250;28;20039;-74
2023/05/15 13:30:21;;;;;;;9.60;7.30;;;;;;;21.20;71.32;99978.69;5070824;28;20028;-74
2023/05/15 13:32:47;;;;;;;9.60;6.57;;;;;;;21.16;69.89;99994.72;5070887;28;20035;-73
2023/05/15 13:35:13;;;;;;;13.38;9.30;;;;;;;21.23;72.44;99984.34;5070077;28;20035;-72
2023/05/15 13:37:38;;;;;;;10.85;8.48;;;;;;;21.12;73.22;99998.31;5071723;28;20024;-73
2023/05/15 13:40:10;;;;;;;9.32;7.22;;;;;;;21.07;74.63;99993.78;5071758;28;20017;-75
2023/05/15 13:42:37;;;;;;;9.63;7.22;;;;;;;20.96;73.01;99995.78;5071856;28;20017;-73
2023/05/15 13:45:04;;;;;;;10.10;7.45;;;;;;;21.21;71.57;99997.41;5071755;28;20551;-73
2023/05/15 13:47:29;;;;;;;10.13;7.50;;;;;;;21.14;71.74;100002.34;5072567;28;20099;-74
2023/05/15 13:49:55;;;;;;;9.02;7.55;;;;;;;20.71;72.71;100002.31;5072249;28;20318;-73
2023/05/15 13:52:20;;;;;;;10.68;7.75;;;;;;;20.76;75.40;100002.28;5071223;28;20094;-73
2023/05/15 13:54:46;;;;;;;9.57;7.70;;;;;;;20.77;75.24;99990.34;5069427;28;20028;-73
2023/05/15 13:57:11;;;;;;;10.50;7.47;;;;;;;20.77;73.33;99995.75;5080894;28;20048;-73
2023/05/15 13:59:36;;;;;;;12.63;7.80;;;;;;;20.53;74.09;99992.19;5092332;28;20028;-73
2023/05/15 14:02:02;;;;;;;10.95;7.20;;;;;;;20.58;74.08;99987.56;5090842;28;20036;-74
2023/05/15 14:04:28;;;;;;;10.57;7.40;;;;;;;20.50;73.65;99999.00;5091840;28;20510;-74
2023/05/15 14:06:53;;;;;;;11.98;7.47;;;;;;;20.58;76.53;99984.03;5091430;28;20115;-75
2023/05/15 14:09:18;;;;;;;10.43;8.35;;;;;;;20.64;75.90;99978.28;5091291;28;20530;-73
2023/05/15 14:11:44;;;;;;;9.50;8.10;;;;;;;20.55;74.42;99977.25;5091701;28;20070;-73
2023/05/15 14:14:10;;;;;;;10.65;7.90;;;;;;;20.45;75.54;99972.78;5091029;28;20063;-73
2023/05/15 14:16:35;;;;;;;11.20;8.10;;;;;;;20.82;75.63;99965.91;5091097;28;20043;-73
2023/05/15 14:19:01;;;;;;;9.55;7.35;;;;;;;20.45;75.52;99980.91;5090760;28;20032;-75
2023/05/15 14:21:26;;;;;;;8.93;7.28;;;;;;;20.54;78.26;99993.81;5091347;28;20027;-72
2023/05/15 14:23:52;;;;;;;10.77;7.55;;;;;;;20.56;75.19;99988.94;5091422;28;20040;-72
2023/05/15 14:26:17;;;;;;;11.15;7.43;;;;;;;20.21;77.88;99982.78;5091291;28;20493;-74
2023/05/15 14:28:42;;;;;;;9.88;7.78;;;;;;;20.33;76.43;99976.94;5092211;28;20105;-76
2023/05/15 14:31:08;;;;;;;10.68;7.78;;;;;;;20.39;77.21;99992.06;5091604;28;20047;-74
2023/05/15 14:33:33;;;;;;;11.82;7.93;;;;;;;20.11;75.99;99996.41;5092169;28;20469;-74
2023/05/15 14:35:59;;;;;;;12.10;8.77;;;;;;;20.29;77.53;100003.81;5092541;28;20028;-73
2023/05/15 14:38:25;;;;;;;10.88;8.80;;;;;;;19.87;76.62;99997.13;5091618;28;21270;-74
2023/05/15 14:40:50;;;;;;;12.13;9.85;;;;;;;19.99;78.63;99978.63;5091588;28;20299;-75
2023/05/15 14:43:16;;;;;;;15.30;11.13;;;;;;;19.93;81.68;99982.44;5090919;28;20024;-72
2023/05/15 14:45:41;;;;;;;13.90;11.02;;;;;;;19.90;80.47;99983.03;5090818;28;20032;-74
2023/05/15 14:48:07;;;;;;;12.55;10.10;;;;;;;19.98;79.25;99971.59;5090525;28;20032;-73
2023/05/15 14:50:32;;;;;;;12.32;10.55;;;;;;;20.00;81.08;99974.84;5091203;28;20023;-75
2023/05/15 14:52:58;;;;;;;16.58;11.82;;;;;;;20.17;79.30;99981.72;5091120;28;20071;-73
2023/05/15 14:55:23;;;;;;;14.95;11.00;;;;;;;19.99;79.51;99984.03;5090278;28;20039;-74
2023/05/15 14:57:48;;;;;;;13.25;10.93;;;;;;;19.94;81.21;99984.09;5090222;28;20519;-74
2023/05/15 15:00:15;;;;;;;16.73;11.77;;;;;;;19.93;81.41;99984.34;5090305;28;20024;-74
2023/05/15 15:02:41;;;;;;;13.40;11.60;;;;;;;19.98;79.13;99973.47;5090356;28;20032;-75
2023/05/15 15:05:07;;;;;;;15.48;12.38;;;;;;;20.00;79.23;99974.84;5090680;28;20069;-73
2023/05/15 15:07:56;;;;;;;16.48;12.88;;;;;;;19.98;80.74;99971.59;5088882;28;20036;-75
2023/05/15 15:10:22;;;;;;;14.75;12.13;;;;;;;19.85;81.13;99973.03;5088626;28;20039;-73
2023/05/15 15:12:47;;;;;;;15.23;13.57;;;;;;;19.84;82.69;99968.72;5088899;28;20111;-74
2023/05/15 15:15:12;;;;;;;16.45;14.20;;;;;;;19.96;81.75;99957.53;5088508;28;20085;-74
2023/05/15 15:17:38;;;;;;;16.25;12.85;;;;;;;20.01;78.57;99954.78;5089378;28;20107;-73
2023/05/15 15:20:04;;;;;;;14.43;12.43;;;;;;;19.79;80.05;99932.78;5089269;28;20028;-73
2023/05/15 15:22:30;;;;;;;16.42;13.70;;;;;;;19.55;82.25;99938.88;5087961;28;20028;-73
2023/05/15 15:24:55;;;;;;;15.52;11.98;;;;;;;19.48;82.26;99935.69;5089191;28;20024;-74
2023/05/15 15:27:21;;;;;;;14.85;13.27;;;;;;;19.50;85.19;99948.94;5089411;28;20030;-74
2023/05/15 15:29:46;;;;;;;16.38;12.70;;;;;;;19.63;84.20;99961.81;5088413;28;20554;-74
2023/05/15 15:32:11;;;;;;;16.40;13.63;;;;;;;19.47;85.13;99951.13;5088829;28;20111;-75
2023/05/15 15:34:37;;;;;;;14.45;11.88;;;;;;;19.52;84.32;99947.56;5089384;28;20024;-74
2023/05/15 15:37:02;;;;;;;14.93;12.05;;;;;;;19.54;82.55;99953.50;5089030;28;20020;-73
2023/05/15 15:39:28;;;;;;;16.70;12.40;;;;;;;19.58;83.22;99951.03;5089456;28;20094;-73
2023/05/15 15:41:53;;;;;;;15.30;12.60;;;;;;;19.71;83.79;99979.38;5088395;28;20050;-75
2023/05/15 15:44:19;;;;;;;16.70;14.05;;;;;;;19.64;84.43;99980.47;5088667;28;20027;-74
2023/05/15 15:46:44;;;;;;;19.65;14.80;;;;;;;19.60;85.51;99979.41;5088773;28;20036;-74
2023/05/15 15:49:10;;;;;;;20.67;15.90;;;;;;;19.16;85.85;99955.88;5070739;28;20028;-75
2023/05/15 15:51:36;;;;;;;18.77;15.68;;;;;;;19.17;85.76;99968.31;5089424;28;20078;-74
2023/05/15 15:54:01;;;;;;;22.27;16.83;;;;;;;19.25;87.83;99951.50;5088555;28;20020;-73
2023/05/15 15:56:26;;;;;;;17.52;15.13;;;;;;;19.24;88.44;99941.78;5088432;28;20066;-73
2023/05/15 15:58:52;;;;;;;18.70;15.60;;;;;;;19.16;88.92;99933.44;5088436;28;20046;-75
2023/05/15 16:01:17;;;;;;;18.10;15.18;;;;;;;19.30;86.14;99928.25;5088840;28;20028;-75
2023/05/15 16:03:43;;;;;;;18.63;15.75;;;;;;;18.95;88.58;99900.34;5089011;28;20058;-73
2023/05/15 16:06:08;;;;;;;20.40;15.45;;;;;;;19.30;87.19;99947.16;5089325;28;20024;-73
2023/05/15 16:08:34;;;;;;;20.10;16.40;;;;;;;19.23;88.70;99953.69;5089254;28;20521;-74
2023/05/15 16:10:59;;;;;;;18.70;16.60;;;;;;;19.32;87.24;99948.50;5089536;28;20039;-73
2023/05/15 16:13:24;;;;;;;19.52;16.85;;;;;;;19.14;87.96;99944.53;5088055;28;20031;-74